Gosport, United Kingdom
Current Conditions -  °F | °C
As of 10:50 AM on Sunday 23 Nov 2014 (Local Time) from EGHI Reporting Station
Light Rain Light Rain  
Wind Chill: 41°   Ceiling: 4800
Heat Index: 46°   Visibility: 6mi
Dew Point: 43°   Wind: 10mph
Humidity: 87%   Direction: 360°N
Pressure: 30.03"   Gusts: NA
Location:  50.79°N, 1.13°W
Report Text: EGHI 231050Z 36009KT 330V030 9999 -RA FEW012 OVC048 08/06 Q1017
Loading
Personal Weather Stations






























Interactive Weather Map New forecast layout! Learn more

10-Day Weather Forecast

Advertisements
Track Severe Weather on mobile